Aviation Digital Data Service (ADDS)

Output produced by METARs form (0238 UTC 22 April 2019)
found at http://www.aviationweather.gov/metar/data/
 
Forecast for: VOVZ (VIZAGAPATAM , IN)
Text: TAF VOVZ 220200Z 2203/2212 35005KT 4000 BR FEW018
Forecast period: 0300 to 1200 UTC 22 April 2019
Forecast type: FROM: standard forecast or significant change
Winds: from the N (350 degrees) at 6 MPH (5 knots; 2.6 m/s)
Visibility: 2.49 miles (4.01 km)
Ceiling: at least 12,000 feet AGL
Clouds: few clouds at 1800 feet AGL
Weather: BR  (mist)
Text: BECMG 2004/2005 23010KT 6000
Forecast period: 0400 UTC 20 April 2019 to 1200 UTC 22 April 2019
Forecast type: BECOMING: Conditions expected to become as follows by 0500 UTC 20 April 2019
Winds: from the SW (230 degrees) at 12 MPH (10 knots; 5.1 m/s)
Visibility: 4 miles (6 km)
Ceiling: at least 12,000 feet AGL
Clouds: few clouds at 1800 feet AGL
Weather: BR  (mist)
Text: TEMPO 2209/2212 25010G20KT FEW025TCU/CB
Forecast period: 0900 to 1200 UTC 22 April 2019
Forecast type: TEMPORARY: The following changes expected for less than half the time period
Winds: from the WSW (250 degrees) at 12 MPH (10 knots; 5.1 m/s)
gusting to 23 MPH (20 knots; 10.3 m/s)
Visibility: missing
Ceiling: unknown
Clouds: missing
Weather: no significant weather forecast for this period